Blountstown, Florida
Current Conditions -  °F | °C
As of 6:34 PM on Monday 22 Dec 2014 (Local Time) from KMAI Reporting Station
Haze Haze  
Wind Chill: 57°   Ceiling: 200
Heat Index: 57°   Visibility: 1.7mi
Dew Point: 57°   Wind: 5mph
Humidity: 100%   Direction: 90°E
Pressure: 29.85"   Gusts: NA
Location:  30.44°N, 85.05°W
Report Text: KMAI 230034Z AUTO 09004KT 1 3/4SM BR OVC002 14/14 A2985 RMK AO2 T01390139 $
Loading
Personal Weather Stations






























Interactive Weather Map New forecast layout! Learn more

10-Day Weather Forecast

Advertisements
Track Severe Weather on mobile